sensor_id;sensor_type;location;lat;lon;timestamp;pressure;altitude;pressure_sealevel;temperature;humidity
62952;BME280;52163;52.212;-1.002;2023-03-14T00:02:02;97673.76;;;6.68;100.00
62952;BME280;52163;52.212;-1.002;2023-03-14T00:04:27;97680.73;;;6.66;100.00
62952;BME280;52163;52.212;-1.002;2023-03-14T00:06:52;97686.14;;;6.65;100.00
62952;BME280;52163;52.212;-1.002;2023-03-14T00:09:18;97691.64;;;6.62;100.00
62952;BME280;52163;52.212;-1.002;2023-03-14T00:11:43;97696.50;;;6.59;100.00
62952;BME280;52163;52.212;-1.002;2023-03-14T00:14:09;97695.92;;;6.53;100.00
62952;BME280;52163;52.212;-1.002;2023-03-14T00:16:34;97700.42;;;6.48;100.00
62952;BME280;52163;52.212;-1.002;2023-03-14T00:18:59;97700.02;;;6.45;100.00
62952;BME280;52163;52.212;-1.002;2023-03-14T00:21:25;97706.36;;;6.40;100.00
62952;BME280;52163;52.212;-1.002;2023-03-14T00:23:51;97713.94;;;6.36;100.00
62952;BME280;52163;52.212;-1.002;2023-03-14T00:26:18;97710.66;;;6.31;100.00
62952;BME280;52163;52.212;-1.002;2023-03-14T00:28:45;97715.88;;;6.27;100.00
62952;BME280;52163;52.212;-1.002;2023-03-14T00:31:14;97717.75;;;6.24;100.00
62952;BME280;52163;52.212;-1.002;2023-03-14T00:33:39;97723.30;;;6.21;100.00
62952;BME280;52163;52.212;-1.002;2023-03-14T00:36:09;97732.70;;;6.16;100.00
62952;BME280;52163;52.212;-1.002;2023-03-14T00:38:35;97742.02;;;6.09;100.00
62952;BME280;52163;52.212;-1.002;2023-03-14T00:41:06;97745.75;;;6.04;100.00
62952;BME280;52163;52.212;-1.002;2023-03-14T00:43:32;97752.75;;;6.00;100.00
62952;BME280;52163;52.212;-1.002;2023-03-14T00:45:58;97759.33;;;5.96;100.00
62952;BME280;52163;52.212;-1.002;2023-03-14T00:48:23;97766.43;;;5.93;100.00
62952;BME280;52163;52.212;-1.002;2023-03-14T00:50:49;97771.13;;;5.92;100.00
62952;BME280;52163;52.212;-1.002;2023-03-14T00:53:15;97768.61;;;5.86;100.00
62952;BME280;52163;52.212;-1.002;2023-03-14T00:55:42;97779.22;;;5.78;100.00
62952;BME280;52163;52.212;-1.002;2023-03-14T00:58:12;97795.80;;;5.71;100.00
62952;BME280;52163;52.212;-1.002;2023-03-14T01:00:39;97789.75;;;5.64;100.00
62952;BME280;52163;52.212;-1.002;2023-03-14T01:03:06;97800.56;;;5.56;100.00
62952;BME280;52163;52.212;-1.002;2023-03-14T01:05:32;97810.47;;;5.48;100.00
62952;BME280;52163;52.212;-1.002;2023-03-14T01:07:57;97818.90;;;5.39;100.00
62952;BME280;52163;52.212;-1.002;2023-03-14T01:10:23;97832.45;;;5.32;100.00
62952;BME280;52163;52.212;-1.002;2023-03-14T01:12:48;97839.07;;;5.26;100.00
62952;BME280;52163;52.212;-1.002;2023-03-14T01:15:14;97854.63;;;5.19;100.00
62952;BME280;52163;52.212;-1.002;2023-03-14T01:17:40;97863.30;;;5.14;100.00
62952;BME280;52163;52.212;-1.002;2023-03-14T01:20:09;97868.58;;;5.06;100.00
62952;BME280;52163;52.212;-1.002;2023-03-14T01:22:35;97870.80;;;5.00;100.00
62952;BME280;52163;52.212;-1.002;2023-03-14T01:25:01;97866.73;;;4.94;100.00
62952;BME280;52163;52.212;-1.002;2023-03-14T01:27:26;97873.48;;;4.88;100.00
62952;BME280;52163;52.212;-1.002;2023-03-14T01:29:52;97873.89;;;4.83;100.00
62952;BME280;52163;52.212;-1.002;2023-03-14T01:32:17;97879.16;;;4.78;100.00
62952;BME280;52163;52.212;-1.002;2023-03-14T01:34:42;97888.53;;;4.75;100.00
62952;BME280;52163;52.212;-1.002;2023-03-14T01:37:08;97889.56;;;4.73;100.00
62952;BME280;52163;52.212;-1.002;2023-03-14T01:39:33;97896.55;;;4.71;100.00
62952;BME280;52163;52.212;-1.002;2023-03-14T01:42:00;97899.77;;;4.68;100.00
62952;BME280;52163;52.212;-1.002;2023-03-14T01:44:26;97905.08;;;4.64;100.00
62952;BME280;52163;52.212;-1.002;2023-03-14T01:46:51;97914.23;;;4.61;100.00
62952;BME280;52163;52.212;-1.002;2023-03-14T01:49:32;97920.59;;;4.58;100.00
62952;BME280;52163;52.212;-1.002;2023-03-14T01:52:01;97926.10;;;4.52;100.00
62952;BME280;52163;52.212;-1.002;2023-03-14T01:54:28;97933.06;;;4.46;100.00
62952;BME280;52163;52.212;-1.002;2023-03-14T01:57:05;97941.78;;;4.42;100.00
62952;BME280;52163;52.212;-1.002;2023-03-14T01:59:32;97946.55;;;4.39;100.00
62952;BME280;52163;52.212;-1.002;2023-03-14T02:01:59;97955.92;;;4.35;100.00
62952;BME280;52163;52.212;-1.002;2023-03-14T02:04:28;97958.61;;;4.31;100.00
62952;BME280;52163;52.212;-1.002;2023-03-14T02:07:17;97961.98;;;4.26;100.00
62952;BME280;52163;52.212;-1.002;2023-03-14T02:09:44;97969.22;;;4.20;100.00
62952;BME280;52163;52.212;-1.002;2023-03-14T02:12:11;97968.83;;;4.16;100.00
62952;BME280;52163;52.212;-1.002;2023-03-14T02:14:38;97972.30;;;4.12;99.83
62952;BME280;52163;52.212;-1.002;2023-03-14T02:17:09;97976.27;;;4.08;99.47
62952;BME280;52163;52.212;-1.002;2023-03-14T02:19:42;97988.42;;;4.03;99.03
62952;BME280;52163;52.212;-1.002;2023-03-14T02:22:13;98000.79;;;4.00;98.36
62952;BME280;52163;52.212;-1.002;2023-03-14T02:27:16;98003.93;;;3.90;97.45
62952;BME280;52163;52.212;-1.002;2023-03-14T02:29:56;98004.23;;;3.86;96.59
62952;BME280;52163;52.212;-1.002;2023-03-14T02:32:24;98006.94;;;3.82;96.49
62952;BME280;52163;52.212;-1.002;2023-03-14T02:34:56;98005.64;;;3.78;96.06
62952;BME280;52163;52.212;-1.002;2023-03-14T02:37:27;98006.87;;;3.73;95.34
62952;BME280;52163;52.212;-1.002;2023-03-14T02:39:55;98013.11;;;3.69;95.19
62952;BME280;52163;52.212;-1.002;2023-03-14T02:42:23;98021.84;;;3.67;95.03
62952;BME280;52163;52.212;-1.002;2023-03-14T02:45:41;98031.95;;;3.67;95.01
62952;BME280;52163;52.212;-1.002;2023-03-14T02:47:43;98042.14;;;3.66;94.53
62952;BME280;52163;52.212;-1.002;2023-03-14T02:50:12;98044.80;;;3.65;94.31
62952;BME280;52163;52.212;-1.002;2023-03-14T02:52:39;98046.81;;;3.64;93.91
62952;BME280;52163;52.212;-1.002;2023-03-14T02:55:05;98051.04;;;3.64;93.72
62952;BME280;52163;52.212;-1.002;2023-03-14T02:57:31;98059.48;;;3.65;93.59
62952;BME280;52163;52.212;-1.002;2023-03-14T03:00:00;98073.31;;;3.67;93.22
62952;BME280;52163;52.212;-1.002;2023-03-14T03:02:28;98083.17;;;3.68;93.09
62952;BME280;52163;52.212;-1.002;2023-03-14T03:04:54;98087.42;;;3.70;92.86
62952;BME280;52163;52.212;-1.002;2023-03-14T03:07:19;98088.30;;;3.70;92.70
62952;BME280;52163;52.212;-1.002;2023-03-14T03:09:46;98095.53;;;3.71;92.56
62952;BME280;52163;52.212;-1.002;2023-03-14T03:12:11;98098.64;;;3.74;92.51
62952;BME280;52163;52.212;-1.002;2023-03-14T03:14:37;98105.48;;;3.74;92.26
62952;BME280;52163;52.212;-1.002;2023-03-14T03:17:04;98111.20;;;3.74;91.83
62952;BME280;52163;52.212;-1.002;2023-03-14T03:19:30;98120.52;;;3.74;91.91
62952;BME280;52163;52.212;-1.002;2023-03-14T03:21:55;98127.26;;;3.72;91.44
62952;BME280;52163;52.212;-1.002;2023-03-14T03:24:21;98132.25;;;3.71;91.41
62952;BME280;52163;52.212;-1.002;2023-03-14T03:26:46;98139.70;;;3.71;91.56
62952;BME280;52163;52.212;-1.002;2023-03-14T03:29:11;98137.75;;;3.72;91.73
62952;BME280;52163;52.212;-1.002;2023-03-14T03:31:38;98138.83;;;3.71;91.76
62952;BME280;52163;52.212;-1.002;2023-03-14T03:34:03;98142.73;;;3.70;91.91
62952;BME280;52163;52.212;-1.002;2023-03-14T03:36:29;98149.18;;;3.68;91.78
62952;BME280;52163;52.212;-1.002;2023-03-14T03:38:54;98155.23;;;3.67;91.60
62952;BME280;52163;52.212;-1.002;2023-03-14T03:41:20;98162.95;;;3.66;91.47
62952;BME280;52163;52.212;-1.002;2023-03-14T03:43:45;98166.60;;;3.67;91.12
62952;BME280;52163;52.212;-1.002;2023-03-14T03:46:10;98168.66;;;3.67;90.76
62952;BME280;52163;52.212;-1.002;2023-03-14T03:48:36;98175.96;;;3.67;90.34
62952;BME280;52163;52.212;-1.002;2023-03-14T03:51:02;98175.46;;;3.67;90.24
62952;BME280;52163;52.212;-1.002;2023-03-14T03:53:27;98183.44;;;3.68;90.13
62952;BME280;52163;52.212;-1.002;2023-03-14T03:55:53;98194.16;;;3.69;89.98
62952;BME280;52163;52.212;-1.002;2023-03-14T03:58:18;98204.25;;;3.70;90.13
62952;BME280;52163;52.212;-1.002;2023-03-14T04:00:44;98209.13;;;3.70;90.04
62952;BME280;52163;52.212;-1.002;2023-03-14T04:03:09;98212.31;;;3.69;89.41
62952;BME280;52163;52.212;-1.002;2023-03-14T04:05:35;98216.34;;;3.69;89.10
62952;BME280;52163;52.212;-1.002;2023-03-14T04:08:01;98224.78;;;3.68;88.76
62952;BME280;52163;52.212;-1.002;2023-03-14T04:10:26;98230.51;;;3.66;88.76
62952;BME280;52163;52.212;-1.002;2023-03-14T04:12:51;98238.15;;;3.64;88.70
62952;BME280;52163;52.212;-1.002;2023-03-14T04:15:17;98250.51;;;3.62;88.48
62952;BME280;52163;52.212;-1.002;2023-03-14T04:17:44;98256.27;;;3.60;88.43
62952;BME280;52163;52.212;-1.002;2023-03-14T04:20:10;98260.78;;;3.60;88.52
62952;BME280;52163;52.212;-1.002;2023-03-14T04:22:39;98267.42;;;3.62;88.36
62952;BME280;52163;52.212;-1.002;2023-03-14T04:25:06;98276.48;;;3.66;88.16
62952;BME280;52163;52.212;-1.002;2023-03-14T04:27:31;98278.99;;;3.67;87.99
62952;BME280;52163;52.212;-1.002;2023-03-14T04:29:57;98286.78;;;3.68;87.66
62952;BME280;52163;52.212;-1.002;2023-03-14T04:32:22;98288.81;;;3.69;87.61
62952;BME280;52163;52.212;-1.002;2023-03-14T04:34:48;98295.11;;;3.69;87.41
62952;BME280;52163;52.212;-1.002;2023-03-14T04:37:13;98298.73;;;3.67;87.21
62952;BME280;52163;52.212;-1.002;2023-03-14T04:39:38;98307.20;;;3.66;87.19
62952;BME280;52163;52.212;-1.002;2023-03-14T04:42:04;98308.95;;;3.66;87.48
62952;BME280;52163;52.212;-1.002;2023-03-14T04:44:29;98320.87;;;3.65;87.48
62952;BME280;52163;52.212;-1.002;2023-03-14T04:46:55;98330.69;;;3.65;87.61
62952;BME280;52163;52.212;-1.002;2023-03-14T04:49:22;98332.61;;;3.61;87.94
62952;BME280;52163;52.212;-1.002;2023-03-14T04:51:48;98341.44;;;3.57;87.86
62952;BME280;52163;52.212;-1.002;2023-03-14T04:54:16;98351.85;;;3.53;88.20
62952;BME280;52163;52.212;-1.002;2023-03-14T04:56:42;98354.45;;;3.48;88.71
62952;BME280;52163;52.212;-1.002;2023-03-14T04:59:07;98363.60;;;3.44;88.84
62952;BME280;52163;52.212;-1.002;2023-03-14T05:01:33;98366.46;;;3.40;88.88
62952;BME280;52163;52.212;-1.002;2023-03-14T05:03:59;98369.66;;;3.37;88.81
62952;BME280;52163;52.212;-1.002;2023-03-14T05:06:24;98374.45;;;3.33;89.22
62952;BME280;52163;52.212;-1.002;2023-03-14T05:08:49;98383.59;;;3.29;89.39
62952;BME280;52163;52.212;-1.002;2023-03-14T05:11:15;98395.56;;;3.27;89.77
62952;BME280;52163;52.212;-1.002;2023-03-14T05:13:40;98398.74;;;3.27;90.11
62952;BME280;52163;52.212;-1.002;2023-03-14T05:16:08;98403.36;;;3.28;90.46
62952;BME280;52163;52.212;-1.002;2023-03-14T05:18:34;98407.77;;;3.30;91.04
62952;BME280;52163;52.212;-1.002;2023-03-14T05:21:00;98414.54;;;3.34;91.92
62952;BME280;52163;52.212;-1.002;2023-03-14T05:23:25;98422.76;;;3.36;92.05
62952;BME280;52163;52.212;-1.002;2023-03-14T05:25:51;98426.73;;;3.37;92.96
62952;BME280;52163;52.212;-1.002;2023-03-14T05:28:16;98435.89;;;3.35;93.59
62952;BME280;52163;52.212;-1.002;2023-03-14T05:30:42;98447.89;;;3.33;94.34
62952;BME280;52163;52.212;-1.002;2023-03-14T05:33:07;98455.29;;;3.32;95.39
62952;BME280;52163;52.212;-1.002;2023-03-14T05:35:33;98460.07;;;3.31;95.89
62952;BME280;52163;52.212;-1.002;2023-03-14T05:37:58;98468.92;;;3.29;96.73
62952;BME280;52163;52.212;-1.002;2023-03-14T05:40:24;98481.84;;;3.26;97.12
62952;BME280;52163;52.212;-1.002;2023-03-14T05:42:49;98483.47;;;3.23;97.92
62952;BME280;52163;52.212;-1.002;2023-03-14T05:45:15;98487.61;;;3.20;98.66
62952;BME280;52163;52.212;-1.002;2023-03-14T05:47:40;98498.52;;;3.19;98.84
62952;BME280;52163;52.212;-1.002;2023-03-14T05:50:06;98508.18;;;3.18;99.55
62952;BME280;52163;52.212;-1.002;2023-03-14T05:52:32;98516.48;;;3.16;99.90
62952;BME280;52163;52.212;-1.002;2023-03-14T05:54:57;98531.52;;;3.16;100.00
62952;BME280;52163;52.212;-1.002;2023-03-14T05:57:22;98537.30;;;3.15;100.00
62952;BME280;52163;52.212;-1.002;2023-03-14T05:59:48;98545.68;;;3.15;100.00
62952;BME280;52163;52.212;-1.002;2023-03-14T06:02:13;98559.63;;;3.15;100.00
62952;BME280;52163;52.212;-1.002;2023-03-14T06:04:38;98570.30;;;3.18;100.00
62952;BME280;52163;52.212;-1.002;2023-03-14T06:07:04;98581.42;;;3.18;100.00
62952;BME280;52163;52.212;-1.002;2023-03-14T06:09:29;98587.80;;;3.17;100.00
62952;BME280;52163;52.212;-1.002;2023-03-14T06:11:54;98598.70;;;3.15;100.00
62952;BME280;52163;52.212;-1.002;2023-03-14T06:14:20;98610.48;;;3.14;100.00
62952;BME280;52163;52.212;-1.002;2023-03-14T06:16:45;98620.59;;;3.14;100.00
62952;BME280;52163;52.212;-1.002;2023-03-14T06:19:13;98627.13;;;3.13;100.00
62952;BME280;52163;52.212;-1.002;2023-03-14T06:21:38;98631.80;;;3.07;100.00
62952;BME280;52163;52.212;-1.002;2023-03-14T06:24:04;98645.27;;;3.01;100.00
62952;BME280;52163;52.212;-1.002;2023-03-14T06:26:29;98656.26;;;2.95;100.00
62952;BME280;52163;52.212;-1.002;2023-03-14T06:28:54;98669.14;;;2.89;100.00
62952;BME280;52163;52.212;-1.002;2023-03-14T06:31:20;98678.13;;;2.85;100.00
62952;BME280;52163;52.212;-1.002;2023-03-14T06:33:45;98689.89;;;2.80;100.00
62952;BME280;52163;52.212;-1.002;2023-03-14T06:36:11;98705.16;;;2.72;100.00
62952;BME280;52163;52.212;-1.002;2023-03-14T06:38:36;98715.23;;;2.64;100.00
62952;BME280;52163;52.212;-1.002;2023-03-14T06:41:06;98727.15;;;2.56;100.00
62952;BME280;52163;52.212;-1.002;2023-03-14T06:43:31;98748.17;;;2.48;100.00
62952;BME280;52163;52.212;-1.002;2023-03-14T06:45:57;98752.68;;;2.39;100.00
62952;BME280;52163;52.212;-1.002;2023-03-14T06:48:22;98759.23;;;2.27;100.00
62952;BME280;52163;52.212;-1.002;2023-03-14T06:50:48;98763.67;;;2.15;100.00
62952;BME280;52163;52.212;-1.002;2023-03-14T06:53:14;98770.41;;;2.07;100.00
62952;BME280;52163;52.212;-1.002;2023-03-14T06:55:43;98779.70;;;1.99;100.00
62952;BME280;52163;52.212;-1.002;2023-03-14T06:58:11;98785.86;;;1.94;100.00
62952;BME280;52163;52.212;-1.002;2023-03-14T07:00:36;98799.69;;;1.93;100.00
62952;BME280;52163;52.212;-1.002;2023-03-14T07:03:02;98811.33;;;1.94;100.00
62952;BME280;52163;52.212;-1.002;2023-03-14T07:05:27;98821.30;;;1.97;100.00
62952;BME280;52163;52.212;-1.002;2023-03-14T07:07:53;98827.55;;;2.00;100.00
62952;BME280;52163;52.212;-1.002;2023-03-14T07:10:19;98833.91;;;2.05;100.00
62952;BME280;52163;52.212;-1.002;2023-03-14T07:12:44;98848.28;;;2.10;100.00
62952;BME280;52163;52.212;-1.002;2023-03-14T07:15:10;98860.17;;;2.15;100.00
62952;BME280;52163;52.212;-1.002;2023-03-14T07:17:35;98869.38;;;2.23;100.00
62952;BME280;52163;52.212;-1.002;2023-03-14T07:20:01;98885.48;;;2.32;100.00
62952;BME280;52163;52.212;-1.002;2023-03-14T07:22:28;98892.64;;;2.39;100.00
62952;BME280;52163;52.212;-1.002;2023-03-14T07:24:53;98906.15;;;2.44;100.00
62952;BME280;52163;52.212;-1.002;2023-03-14T07:27:19;98912.59;;;2.51;100.00
62952;BME280;52163;52.212;-1.002;2023-03-14T07:29:44;98926.92;;;2.56;100.00
62952;BME280;52163;52.212;-1.002;2023-03-14T07:32:09;98940.70;;;2.60;100.00
62952;BME280;52163;52.212;-1.002;2023-03-14T07:34:40;98945.23;;;2.59;100.00
62952;BME280;52163;52.212;-1.002;2023-03-14T07:37:05;98957.02;;;2.57;100.00
62952;BME280;52163;52.212;-1.002;2023-03-14T07:39:31;98966.09;;;2.54;100.00
62952;BME280;52163;52.212;-1.002;2023-03-14T07:41:56;98977.30;;;2.53;100.00
62952;BME280;52163;52.212;-1.002;2023-03-14T07:44:22;98988.15;;;2.52;100.00
62952;BME280;52163;52.212;-1.002;2023-03-14T07:46:47;98993.08;;;2.52;100.00
62952;BME280;52163;52.212;-1.002;2023-03-14T07:49:12;99006.66;;;2.52;100.00
62952;BME280;52163;52.212;-1.002;2023-03-14T07:51:38;99013.11;;;2.52;100.00
62952;BME280;52163;52.212;-1.002;2023-03-14T07:54:03;99023.66;;;2.50;100.00
62952;BME280;52163;52.212;-1.002;2023-03-14T07:56:29;99031.48;;;2.51;100.00
62952;BME280;52163;52.212;-1.002;2023-03-14T07:58:54;99039.15;;;2.54;100.00
62952;BME280;52163;52.212;-1.002;2023-03-14T08:01:19;99047.42;;;2.59;100.00
62952;BME280;52163;52.212;-1.002;2023-03-14T08:03:45;99056.55;;;2.69;100.00
62952;BME280;52163;52.212;-1.002;2023-03-14T08:06:10;99054.88;;;2.77;100.00
62952;BME280;52163;52.212;-1.002;2023-03-14T08:08:36;99064.02;;;2.86;100.00
62952;BME280;52163;52.212;-1.002;2023-03-14T08:11:03;99071.63;;;2.95;100.00
62952;BME280;52163;52.212;-1.002;2023-03-14T08:13:29;99080.88;;;3.01;100.00
62952;BME280;52163;52.212;-1.002;2023-03-14T08:15:54;99087.16;;;3.08;100.00
62952;BME280;52163;52.212;-1.002;2023-03-14T08:18:20;99091.45;;;3.16;100.00
62952;BME280;52163;52.212;-1.002;2023-03-14T08:20:45;99097.87;;;3.24;100.00
62952;BME280;52163;52.212;-1.002;2023-03-14T08:23:10;99101.08;;;3.29;100.00
62952;BME280;52163;52.212;-1.002;2023-03-14T08:25:37;99102.45;;;3.33;100.00
62952;BME280;52163;52.212;-1.002;2023-03-14T08:28:04;99113.23;;;3.33;100.00
62952;BME280;52163;52.212;-1.002;2023-03-14T08:30:29;99124.00;;;3.38;100.00
62952;BME280;52163;52.212;-1.002;2023-03-14T08:32:58;99134.39;;;3.43;100.00
62952;BME280;52163;52.212;-1.002;2023-03-14T08:35:25;99140.83;;;3.47;100.00
62952;BME280;52163;52.212;-1.002;2023-03-14T08:37:50;99147.03;;;3.52;100.00
62952;BME280;52163;52.212;-1.002;2023-03-14T08:40:17;99155.05;;;3.55;100.00
62952;BME280;52163;52.212;-1.002;2023-03-14T08:42:43;99164.34;;;3.55;100.00
62952;BME280;52163;52.212;-1.002;2023-03-14T08:45:11;99173.95;;;3.54;100.00
62952;BME280;52163;52.212;-1.002;2023-03-14T08:47:37;99182.98;;;3.59;100.00
62952;BME280;52163;52.212;-1.002;2023-03-14T08:50:04;99193.02;;;3.64;100.00
62952;BME280;52163;52.212;-1.002;2023-03-14T08:52:30;99200.92;;;3.67;100.00
62952;BME280;52163;52.212;-1.002;2023-03-14T08:54:56;99211.75;;;3.70;100.00
62952;BME280;52163;52.212;-1.002;2023-03-14T08:57:22;99220.80;;;3.70;100.00
62952;BME280;52163;52.212;-1.002;2023-03-14T08:59:53;99229.52;;;3.71;100.00
62952;BME280;52163;52.212;-1.002;2023-03-14T09:02:19;99235.05;;;3.78;100.00
62952;BME280;52163;52.212;-1.002;2023-03-14T09:04:44;99243.86;;;3.90;100.00
62952;BME280;52163;52.212;-1.002;2023-03-14T09:07:10;99247.16;;;4.04;100.00
62952;BME280;52163;52.212;-1.002;2023-03-14T09:09:36;99250.95;;;4.18;100.00
62952;BME280;52163;52.212;-1.002;2023-03-14T09:12:01;99259.80;;;4.33;99.70
62952;BME280;52163;52.212;-1.002;2023-03-14T09:14:26;99267.04;;;4.44;99.42
62952;BME280;52163;52.212;-1.002;2023-03-14T09:16:52;99272.71;;;4.49;98.52
62952;BME280;52163;52.212;-1.002;2023-03-14T09:19:17;99275.81;;;4.47;98.23
62952;BME280;52163;52.212;-1.002;2023-03-14T09:21:43;99285.06;;;4.41;98.26
62952;BME280;52163;52.212;-1.002;2023-03-14T09:24:08;99292.66;;;4.36;98.02
62952;BME280;52163;52.212;-1.002;2023-03-14T09:26:34;99297.77;;;4.29;97.60
62952;BME280;52163;52.212;-1.002;2023-03-14T09:28:59;99299.65;;;4.33;97.65
62952;BME280;52163;52.212;-1.002;2023-03-14T09:31:24;99301.15;;;4.38;97.55
62952;BME280;52163;52.212;-1.002;2023-03-14T09:33:50;99314.48;;;4.40;97.22
62952;BME280;52163;52.212;-1.002;2023-03-14T09:36:15;99320.90;;;4.38;96.95
62952;BME280;52163;52.212;-1.002;2023-03-14T09:38:41;99326.77;;;4.32;96.57
62952;BME280;52163;52.212;-1.002;2023-03-14T09:41:33;99328.23;;;4.31;96.24
62952;BME280;52163;52.212;-1.002;2023-03-14T09:44:06;99330.54;;;4.37;96.26
62952;BME280;52163;52.212;-1.002;2023-03-14T09:46:36;99340.52;;;4.44;96.08
62952;BME280;52163;52.212;-1.002;2023-03-14T09:49:09;99343.33;;;4.50;95.05
62952;BME280;52163;52.212;-1.002;2023-03-14T09:51:37;99347.61;;;4.58;94.04
62952;BME280;52163;52.212;-1.002;2023-03-14T09:54:04;99356.82;;;4.70;94.18
62952;BME280;52163;52.212;-1.002;2023-03-14T09:56:32;99363.45;;;4.73;93.59
62952;BME280;52163;52.212;-1.002;2023-03-14T09:59:00;99370.25;;;4.74;92.73
62952;BME280;52163;52.212;-1.002;2023-03-14T10:01:30;99375.69;;;4.89;92.58
62952;BME280;52163;52.212;-1.002;2023-03-14T10:04:00;99387.73;;;5.12;92.07
62952;BME280;52163;52.212;-1.002;2023-03-14T10:06:30;99396.50;;;5.21;91.42
62952;BME280;52163;52.212;-1.002;2023-03-14T10:08:56;99405.71;;;5.26;90.36
62952;BME280;52163;52.212;-1.002;2023-03-14T10:11:23;99413.36;;;5.33;89.76
62952;BME280;52163;52.212;-1.002;2023-03-14T10:16:36;99420.69;;;5.50;88.90
62952;BME280;52163;52.212;-1.002;2023-03-14T10:19:09;99428.61;;;5.70;88.44
62952;BME280;52163;52.212;-1.002;2023-03-14T10:22:00;99430.34;;;6.02;88.11
62952;BME280;52163;52.212;-1.002;2023-03-14T10:26:57;99437.00;;;6.47;85.95
62952;BME280;52163;52.212;-1.002;2023-03-14T10:29:23;99441.72;;;6.54;85.25
62952;BME280;52163;52.212;-1.002;2023-03-14T10:34:23;99454.00;;;6.68;82.75
62952;BME280;52163;52.212;-1.002;2023-03-14T10:36:53;99455.52;;;6.80;81.82
62952;BME280;52163;52.212;-1.002;2023-03-14T10:39:24;99465.52;;;6.84;81.44
62952;BME280;52163;52.212;-1.002;2023-03-14T10:41:55;99469.61;;;6.77;81.29
62952;BME280;52163;52.212;-1.002;2023-03-14T10:44:28;99470.02;;;6.73;80.77
62952;BME280;52163;52.212;-1.002;2023-03-14T10:47:00;99474.06;;;6.73;81.18
62952;BME280;52163;52.212;-1.002;2023-03-14T10:49:37;99477.65;;;6.63;80.92
62952;BME280;52163;52.212;-1.002;2023-03-14T10:52:13;99486.85;;;6.53;80.47
62952;BME280;52163;52.212;-1.002;2023-03-14T10:54:39;99492.13;;;6.41;79.91
62952;BME280;52163;52.212;-1.002;2023-03-14T10:57:05;99494.88;;;6.23;79.02
62952;BME280;52163;52.212;-1.002;2023-03-14T10:59:39;99504.19;;;6.08;78.93
62952;BME280;52163;52.212;-1.002;2023-03-14T11:10:20;99526.81;;;6.32;79.20
62952;BME280;52163;52.212;-1.002;2023-03-14T11:21:29;99556.21;;;6.90;76.01
62952;BME280;52163;52.212;-1.002;2023-03-14T11:31:35;99590.96;;;6.82;74.12
62952;BME280;52163;52.212;-1.002;2023-03-14T11:34:10;99591.04;;;6.78;73.07
62952;BME280;52163;52.212;-1.002;2023-03-14T11:36:59;99591.49;;;6.70;72.59
62952;BME280;52163;52.212;-1.002;2023-03-14T11:39:34;99593.97;;;6.66;72.50
62952;BME280;52163;52.212;-1.002;2023-03-14T11:42:03;99589.39;;;6.70;72.92
62952;BME280;52163;52.212;-1.002;2023-03-14T11:44:32;99585.45;;;6.74;72.88
62952;BME280;52163;52.212;-1.002;2023-03-14T11:47:19;99584.92;;;6.83;72.07
62952;BME280;52163;52.212;-1.002;2023-03-14T11:49:53;99586.57;;;6.88;71.39
62952;BME280;52163;52.212;-1.002;2023-03-14T11:52:37;99589.44;;;6.89;71.07
62952;BME280;52163;52.212;-1.002;2023-03-14T11:55:11;99592.36;;;6.88;70.43
62952;BME280;52163;52.212;-1.002;2023-03-14T11:57:39;99595.16;;;6.79;69.12
62952;BME280;52163;52.212;-1.002;2023-03-14T12:10:37;99609.51;;;6.88;67.70
62952;BME280;52163;52.212;-1.002;2023-03-14T12:13:04;99606.20;;;6.89;68.30
62952;BME280;52163;52.212;-1.002;2023-03-14T12:15:30;99610.09;;;6.76;66.85
62952;BME280;52163;52.212;-1.002;2023-03-14T12:17:56;99612.13;;;6.65;64.94
62952;BME280;52163;52.212;-1.002;2023-03-14T12:20:23;99620.14;;;6.66;65.39
62952;BME280;52163;52.212;-1.002;2023-03-14T12:23:04;99620.64;;;6.76;65.14
62952;BME280;52163;52.212;-1.002;2023-03-14T12:25:32;99620.81;;;6.87;64.86
62952;BME280;52163;52.212;-1.002;2023-03-14T12:28:21;99633.76;;;6.88;64.75
62952;BME280;52163;52.212;-1.002;2023-03-14T12:30:47;99638.92;;;6.81;63.09
62952;BME280;52163;52.212;-1.002;2023-03-14T12:33:20;99639.06;;;6.88;63.33
62952;BME280;52163;52.212;-1.002;2023-03-14T12:35:57;99643.38;;;7.01;63.16
62952;BME280;52163;52.212;-1.002;2023-03-14T12:41:46;99642.20;;;7.09;62.39
62952;BME280;52163;52.212;-1.002;2023-03-14T12:49:48;99655.73;;;7.44;61.98
62952;BME280;52163;52.212;-1.002;2023-03-14T12:52:37;99655.97;;;7.35;61.68
62952;BME280;52163;52.212;-1.002;2023-03-14T12:55:14;99657.69;;;7.26;61.53
62952;BME280;52163;52.212;-1.002;2023-03-14T13:01:03;99659.88;;;7.31;61.06
62952;BME280;52163;52.212;-1.002;2023-03-14T13:03:45;99661.81;;;7.31;60.81
62952;BME280;52163;52.212;-1.002;2023-03-14T13:06:12;99662.41;;;7.33;60.57
62952;BME280;52163;52.212;-1.002;2023-03-14T13:08:39;99660.77;;;7.31;60.71
62952;BME280;52163;52.212;-1.002;2023-03-14T13:11:15;99664.61;;;7.40;61.05
62952;BME280;52163;52.212;-1.002;2023-03-14T13:13:45;99661.07;;;7.55;60.95
62952;BME280;52163;52.212;-1.002;2023-03-14T13:16:21;99662.55;;;7.68;60.05
62952;BME280;52163;52.212;-1.002;2023-03-14T13:18:49;99660.83;;;7.79;59.68
62952;BME280;52163;52.212;-1.002;2023-03-14T13:21:24;99660.70;;;7.84;59.43
62952;BME280;52163;52.212;-1.002;2023-03-14T13:23:59;99664.51;;;7.93;59.23
62952;BME280;52163;52.212;-1.002;2023-03-14T13:26:32;99654.63;;;8.14;59.08
62952;BME280;52163;52.212;-1.002;2023-03-14T13:28:59;99655.50;;;8.33;58.39
62952;BME280;52163;52.212;-1.002;2023-03-14T13:31:25;99659.34;;;8.53;58.15
62952;BME280;52163;52.212;-1.002;2023-03-14T13:34:09;99662.94;;;8.68;57.28
62952;BME280;52163;52.212;-1.002;2023-03-14T13:36:36;99657.16;;;8.74;57.08
62952;BME280;52163;52.212;-1.002;2023-03-14T13:39:02;99662.85;;;8.78;56.73
62952;BME280;52163;52.212;-1.002;2023-03-14T13:41:30;99664.50;;;8.93;56.37
62952;BME280;52163;52.212;-1.002;2023-03-14T13:44:03;99660.48;;;9.11;56.39
62952;BME280;52163;52.212;-1.002;2023-03-14T13:46:33;99661.27;;;9.28;56.73
62952;BME280;52163;52.212;-1.002;2023-03-14T13:49:03;99662.60;;;9.42;55.87
62952;BME280;52163;52.212;-1.002;2023-03-14T13:51:29;99662.52;;;9.46;55.83
62952;BME280;52163;52.212;-1.002;2023-03-14T13:53:58;99661.33;;;9.37;55.21
62952;BME280;52163;52.212;-1.002;2023-03-14T13:56:28;99663.66;;;9.26;54.82